sensor_id;sensor_type;location;lat;lon;timestamp;pressure;altitude;pressure_sealevel;temperature;humidity
57791;BME280;43621;51.798;21.588;2023-03-20T00:03:46;99895.74;;;6.55;46.79
57791;BME280;43621;51.798;21.588;2023-03-20T00:07:49;99895.70;;;6.51;47.01
57791;BME280;43621;51.798;21.588;2023-03-20T00:11:52;99891.95;;;6.48;47.11
57791;BME280;43621;51.798;21.588;2023-03-20T00:15:56;99891.70;;;6.44;47.16
57791;BME280;43621;51.798;21.588;2023-03-20T00:19:57;99890.46;;;6.39;47.23
57791;BME280;43621;51.798;21.588;2023-03-20T00:23:59;99889.20;;;6.35;47.44
57791;BME280;43621;51.798;21.588;2023-03-20T00:32:18;99881.19;;;6.36;47.79
57791;BME280;43621;51.798;21.588;2023-03-20T00:36:20;99882.32;;;6.35;47.81
57791;BME280;43621;51.798;21.588;2023-03-20T00:40:28;99880.70;;;6.33;47.84
57791;BME280;43621;51.798;21.588;2023-03-20T00:44:51;99882.23;;;6.36;47.94
57791;BME280;43621;51.798;21.588;2023-03-20T00:48:54;99884.52;;;6.33;47.87
57791;BME280;43621;51.798;21.588;2023-03-20T00:52:57;99882.29;;;6.33;48.09
57791;BME280;43621;51.798;21.588;2023-03-20T00:57:02;99882.00;;;6.30;48.18
57791;BME280;43621;51.798;21.588;2023-03-20T01:01:05;99880.31;;;6.27;48.10
57791;BME280;43621;51.798;21.588;2023-03-20T01:05:07;99879.24;;;6.21;48.33
57791;BME280;43621;51.798;21.588;2023-03-20T01:09:09;99874.73;;;6.16;48.56
57791;BME280;43621;51.798;21.588;2023-03-20T01:13:19;99871.29;;;6.11;48.46
57791;BME280;43621;51.798;21.588;2023-03-20T01:17:23;99872.38;;;6.06;48.46
57791;BME280;43621;51.798;21.588;2023-03-20T01:21:25;99870.35;;;6.00;48.54
57791;BME280;43621;51.798;21.588;2023-03-20T01:25:26;99868.77;;;5.96;48.67
57791;BME280;43621;51.798;21.588;2023-03-20T01:29:28;99864.04;;;5.92;48.80
57791;BME280;43621;51.798;21.588;2023-03-20T01:33:32;99864.34;;;5.88;48.83
57791;BME280;43621;51.798;21.588;2023-03-20T01:37:33;99867.56;;;5.82;48.96
57791;BME280;43621;51.798;21.588;2023-03-20T01:41:35;99865.55;;;5.78;48.97
57791;BME280;43621;51.798;21.588;2023-03-20T01:45:38;99867.52;;;5.75;49.06
57791;BME280;43621;51.798;21.588;2023-03-20T01:54:33;99857.49;;;5.77;49.36
57791;BME280;43621;51.798;21.588;2023-03-20T01:58:38;99855.59;;;5.77;49.32
57791;BME280;43621;51.798;21.588;2023-03-20T02:02:43;99854.11;;;5.71;49.32
57791;BME280;43621;51.798;21.588;2023-03-20T02:06:45;99852.44;;;5.66;49.39
57791;BME280;43621;51.798;21.588;2023-03-20T02:10:48;99845.18;;;5.59;49.51
57791;BME280;43621;51.798;21.588;2023-03-20T02:14:51;99843.09;;;5.50;49.72
57791;BME280;43621;51.798;21.588;2023-03-20T02:18:55;99836.33;;;5.47;49.77
57791;BME280;43621;51.798;21.588;2023-03-20T02:40:34;99838.95;;;5.28;50.30
57791;BME280;43621;51.798;21.588;2023-03-20T02:44:52;99833.07;;;5.27;50.45
57791;BME280;43621;51.798;21.588;2023-03-20T02:58:16;99832.27;;;5.36;50.60
57791;BME280;43621;51.798;21.588;2023-03-20T03:02:50;99827.94;;;5.34;50.60
57791;BME280;43621;51.798;21.588;2023-03-20T03:06:55;99825.62;;;5.28;50.59
57791;BME280;43621;51.798;21.588;2023-03-20T03:11:04;99819.70;;;5.21;50.65
57791;BME280;43621;51.798;21.588;2023-03-20T03:15:15;99813.05;;;5.12;50.71
57791;BME280;43621;51.798;21.588;2023-03-20T03:19:20;99813.90;;;5.05;50.75
57791;BME280;43621;51.798;21.588;2023-03-20T03:23:29;99813.05;;;5.00;50.97
57791;BME280;43621;51.798;21.588;2023-03-20T03:27:41;99810.04;;;4.98;51.19
57791;BME280;43621;51.798;21.588;2023-03-20T03:31:44;99809.42;;;5.02;51.36
57791;BME280;43621;51.798;21.588;2023-03-20T03:35:47;99804.15;;;5.04;51.39
57791;BME280;43621;51.798;21.588;2023-03-20T03:39:51;99799.94;;;4.99;51.37
57791;BME280;43621;51.798;21.588;2023-03-20T03:44:21;99796.83;;;4.95;51.48
57791;BME280;43621;51.798;21.588;2023-03-20T03:48:30;99792.88;;;4.87;51.42
57791;BME280;43621;51.798;21.588;2023-03-20T03:52:34;99797.25;;;4.78;51.47
57791;BME280;43621;51.798;21.588;2023-03-20T03:56:42;99801.35;;;4.72;51.60
57791;BME280;43621;51.798;21.588;2023-03-20T04:00:46;99796.91;;;4.67;51.74
57791;BME280;43621;51.798;21.588;2023-03-20T04:04:52;99791.98;;;4.63;52.04
57791;BME280;43621;51.798;21.588;2023-03-20T04:08:55;99793.02;;;4.60;52.11
57791;BME280;43621;51.798;21.588;2023-03-20T04:12:57;99788.88;;;4.58;52.13
57791;BME280;43621;51.798;21.588;2023-03-20T04:16:59;99790.07;;;4.50;52.12
57791;BME280;43621;51.798;21.588;2023-03-20T04:21:01;99789.60;;;4.47;52.36
57791;BME280;43621;51.798;21.588;2023-03-20T04:25:07;99790.60;;;4.45;52.39
57791;BME280;43621;51.798;21.588;2023-03-20T04:29:09;99790.30;;;4.43;52.46
57791;BME280;43621;51.798;21.588;2023-03-20T04:33:11;99792.69;;;4.38;52.47
57791;BME280;43621;51.798;21.588;2023-03-20T04:37:13;99793.92;;;4.32;52.51
57791;BME280;43621;51.798;21.588;2023-03-20T04:41:15;99798.30;;;4.29;52.72
57791;BME280;43621;51.798;21.588;2023-03-20T04:45:16;99793.02;;;4.28;52.87
57791;BME280;43621;51.798;21.588;2023-03-20T04:49:18;99796.07;;;4.32;53.10
57791;BME280;43621;51.798;21.588;2023-03-20T04:53:20;99801.38;;;4.32;53.05
57791;BME280;43621;51.798;21.588;2023-03-20T04:57:22;99805.13;;;4.33;53.03
57791;BME280;43621;51.798;21.588;2023-03-20T05:01:24;99804.86;;;4.34;53.24
57791;BME280;43621;51.798;21.588;2023-03-20T05:05:26;99806.11;;;4.41;53.37
57791;BME280;43621;51.798;21.588;2023-03-20T05:09:27;99806.45;;;4.56;53.48
57791;BME280;43621;51.798;21.588;2023-03-20T05:13:29;99807.13;;;4.79;53.66
57791;BME280;43621;51.798;21.588;2023-03-20T05:17:31;99805.88;;;5.13;53.76
57791;BME280;43621;51.798;21.588;2023-03-20T05:21:33;99802.02;;;5.52;53.64
57791;BME280;43621;51.798;21.588;2023-03-20T05:25:35;99797.35;;;6.03;53.72
57791;BME280;43621;51.798;21.588;2023-03-20T05:29:36;99800.83;;;6.86;53.74
57791;BME280;43621;51.798;21.588;2023-03-20T05:33:38;99803.36;;;8.04;53.43
57791;BME280;43621;51.798;21.588;2023-03-20T05:37:40;99798.08;;;9.81;53.02
57791;BME280;43621;51.798;21.588;2023-03-20T05:41:42;99798.06;;;11.76;51.89
57791;BME280;43621;51.798;21.588;2023-03-20T05:45:44;99790.52;;;13.05;49.73
57791;BME280;43621;51.798;21.588;2023-03-20T05:49:46;99787.98;;;13.96;47.64
57791;BME280;43621;51.798;21.588;2023-03-20T05:53:48;99787.62;;;14.52;46.03
57791;BME280;43621;51.798;21.588;2023-03-20T05:57:50;99789.36;;;14.54;44.80
57791;BME280;43621;51.798;21.588;2023-03-20T06:01:51;99793.38;;;14.06;43.58
57791;BME280;43621;51.798;21.588;2023-03-20T06:05:53;99796.98;;;13.53;43.17
57791;BME280;43621;51.798;21.588;2023-03-20T06:09:55;99798.48;;;12.93;42.58
57791;BME280;43621;51.798;21.588;2023-03-20T06:13:57;99796.84;;;12.41;42.39
57791;BME280;43621;51.798;21.588;2023-03-20T06:17:59;99800.02;;;12.23;42.81
57791;BME280;43621;51.798;21.588;2023-03-20T06:22:01;99798.14;;;12.52;43.19
57791;BME280;43621;51.798;21.588;2023-03-20T06:26:04;99804.38;;;13.07;43.21
57791;BME280;43621;51.798;21.588;2023-03-20T06:30:08;99804.33;;;14.02;42.75
57791;BME280;43621;51.798;21.588;2023-03-20T06:34:11;99805.50;;;15.37;41.91
57791;BME280;43621;51.798;21.588;2023-03-20T06:38:13;99805.67;;;16.95;40.73
57791;BME280;43621;51.798;21.588;2023-03-20T06:42:15;99810.58;;;18.49;39.62
57791;BME280;43621;51.798;21.588;2023-03-20T06:46:17;99811.34;;;20.05;38.40
57791;BME280;43621;51.798;21.588;2023-03-20T06:50:19;99805.77;;;22.40;36.04
57791;BME280;43621;51.798;21.588;2023-03-20T06:54:21;99801.61;;;24.82;33.42
57791;BME280;43621;51.798;21.588;2023-03-20T06:58:23;99806.41;;;27.32;30.93
57791;BME280;43621;51.798;21.588;2023-03-20T07:02:25;99801.63;;;29.83;28.18
57791;BME280;43621;51.798;21.588;2023-03-20T07:06:26;99807.85;;;32.15;25.86
57791;BME280;43621;51.798;21.588;2023-03-20T07:10:28;99808.84;;;34.25;23.62
57791;BME280;43621;51.798;21.588;2023-03-20T07:14:30;99812.08;;;36.32;21.81
57791;BME280;43621;51.798;21.588;2023-03-20T07:18:32;99813.38;;;38.49;19.72
57791;BME280;43621;51.798;21.588;2023-03-20T07:22:34;99816.16;;;40.69;17.79
57791;BME280;43621;51.798;21.588;2023-03-20T07:26:36;99812.39;;;42.88;15.60
57791;BME280;43621;51.798;21.588;2023-03-20T07:30:39;99810.52;;;44.68;14.43
57791;BME280;43621;51.798;21.588;2023-03-20T07:34:41;99808.73;;;46.36;12.59
57791;BME280;43621;51.798;21.588;2023-03-20T07:38:43;99810.35;;;47.67;11.54
57791;BME280;43621;51.798;21.588;2023-03-20T07:42:45;99809.11;;;48.89;10.59
57791;BME280;43621;51.798;21.588;2023-03-20T07:46:48;99811.42;;;50.09;9.85
57791;BME280;43621;51.798;21.588;2023-03-20T07:50:49;99811.49;;;51.13;8.82
57791;BME280;43621;51.798;21.588;2023-03-20T07:54:51;99810.34;;;52.16;8.59
57791;BME280;43621;51.798;21.588;2023-03-20T07:58:53;99814.17;;;53.16;8.06
57791;BME280;43621;51.798;21.588;2023-03-20T08:02:55;99813.36;;;54.06;7.47
57791;BME280;43621;51.798;21.588;2023-03-20T08:06:57;99812.29;;;54.85;6.90
57791;BME280;43621;51.798;21.588;2023-03-20T08:10:59;99811.23;;;55.85;6.47
57791;BME280;43621;51.798;21.588;2023-03-20T08:15:01;99810.29;;;56.41;6.20
57791;BME280;43621;51.798;21.588;2023-03-20T08:19:02;99808.98;;;56.92;5.82
57791;BME280;43621;51.798;21.588;2023-03-20T08:23:05;99809.36;;;57.05;5.37
57791;BME280;43621;51.798;21.588;2023-03-20T08:27:08;99809.41;;;57.42;4.80
57791;BME280;43621;51.798;21.588;2023-03-20T08:31:10;99808.73;;;57.20;4.61
57791;BME280;43621;51.798;21.588;2023-03-20T08:35:12;99806.28;;;57.27;4.86
57791;BME280;43621;51.798;21.588;2023-03-20T08:39:14;99810.70;;;57.40;4.71
57791;BME280;43621;51.798;21.588;2023-03-20T08:43:16;99809.39;;;57.01;4.06
57791;BME280;43621;51.798;21.588;2023-03-20T08:47:18;99807.31;;;56.28;4.32
57791;BME280;43621;51.798;21.588;2023-03-20T08:51:21;99810.36;;;56.12;4.50
57791;BME280;43621;51.798;21.588;2023-03-20T08:55:23;99808.87;;;56.43;4.56
57791;BME280;43621;51.798;21.588;2023-03-20T08:59:24;99807.67;;;56.88;3.99
57791;BME280;43621;51.798;21.588;2023-03-20T09:03:26;99806.23;;;56.73;3.82
57791;BME280;43621;51.798;21.588;2023-03-20T09:07:28;99806.45;;;56.61;3.56
57791;BME280;43621;51.798;21.588;2023-03-20T09:11:30;99808.48;;;56.63;3.81
57791;BME280;43621;51.798;21.588;2023-03-20T09:15:33;99809.33;;;55.79;4.07
57791;BME280;43621;51.798;21.588;2023-03-20T09:19:36;99805.59;;;54.63;4.22
57791;BME280;43621;51.798;21.588;2023-03-20T09:23:40;99806.29;;;54.52;4.39
57791;BME280;43621;51.798;21.588;2023-03-20T09:27:42;99808.10;;;55.23;4.16
57791;BME280;43621;51.798;21.588;2023-03-20T09:31:44;99806.39;;;55.55;3.94
57791;BME280;43621;51.798;21.588;2023-03-20T09:35:46;99807.40;;;54.95;4.12
57791;BME280;43621;51.798;21.588;2023-03-20T09:39:48;99804.20;;;53.63;4.44
57791;BME280;43621;51.798;21.588;2023-03-20T09:52:28;99796.00;;;49.45;5.57
57791;BME280;43621;51.798;21.588;2023-03-20T09:56:31;99790.81;;;47.46;6.08
57791;BME280;43621;51.798;21.588;2023-03-20T10:00:34;99793.24;;;45.96;6.33
57791;BME280;43621;51.798;21.588;2023-03-20T10:04:37;99793.91;;;45.44;6.40
57791;BME280;43621;51.798;21.588;2023-03-20T10:08:40;99794.33;;;46.02;6.73
57791;BME280;43621;51.798;21.588;2023-03-20T10:21:41;99782.23;;;47.77;6.30
57791;BME280;43621;51.798;21.588;2023-03-20T10:25:58;99783.52;;;48.39;6.00
57791;BME280;43621;51.798;21.588;2023-03-20T10:38:48;99772.80;;;50.02;5.74
57791;BME280;43621;51.798;21.588;2023-03-20T10:42:53;99770.93;;;48.21;5.97
57791;BME280;43621;51.798;21.588;2023-03-20T10:46:58;99764.86;;;43.94;6.69
57791;BME280;43621;51.798;21.588;2023-03-20T10:51:02;99755.20;;;39.90;7.91
57791;BME280;43621;51.798;21.588;2023-03-20T10:55:09;99759.20;;;37.15;9.08
57791;BME280;43621;51.798;21.588;2023-03-20T10:59:30;99754.27;;;35.27;10.18
57791;BME280;43621;51.798;21.588;2023-03-20T11:03:34;99749.52;;;34.46;10.97
57791;BME280;43621;51.798;21.588;2023-03-20T11:07:40;99742.39;;;35.02;11.23
57791;BME280;43621;51.798;21.588;2023-03-20T11:11:45;99740.13;;;35.68;11.14
57791;BME280;43621;51.798;21.588;2023-03-20T11:15:47;99735.91;;;35.77;11.38
57791;BME280;43621;51.798;21.588;2023-03-20T11:19:50;99732.15;;;35.51;11.68
57791;BME280;43621;51.798;21.588;2023-03-20T11:23:53;99731.91;;;35.06;11.97
57791;BME280;43621;51.798;21.588;2023-03-20T11:27:56;99733.81;;;34.25;12.00
57791;BME280;43621;51.798;21.588;2023-03-20T11:36:31;99718.96;;;31.43;13.29
57791;BME280;43621;51.798;21.588;2023-03-20T11:40:38;99719.71;;;30.15;13.96
57791;BME280;43621;51.798;21.588;2023-03-20T11:44:40;99719.85;;;28.91;14.67
57791;BME280;43621;51.798;21.588;2023-03-20T11:48:44;99718.15;;;27.91;15.60
57791;BME280;43621;51.798;21.588;2023-03-20T11:52:46;99713.46;;;26.81;16.49
57791;BME280;43621;51.798;21.588;2023-03-20T11:56:54;99714.05;;;25.93;17.11
57791;BME280;43621;51.798;21.588;2023-03-20T12:00:57;99710.23;;;25.37;17.85
57791;BME280;43621;51.798;21.588;2023-03-20T12:04:59;99709.56;;;24.88;18.54
57791;BME280;43621;51.798;21.588;2023-03-20T12:09:06;99708.99;;;24.34;18.97
57791;BME280;43621;51.798;21.588;2023-03-20T12:13:25;99710.16;;;23.93;19.56
57791;BME280;43621;51.798;21.588;2023-03-20T12:17:31;99711.00;;;23.64;19.95
57791;BME280;43621;51.798;21.588;2023-03-20T12:21:39;99707.77;;;23.45;20.33
57791;BME280;43621;51.798;21.588;2023-03-20T12:25:58;99708.21;;;23.06;20.74
57791;BME280;43621;51.798;21.588;2023-03-20T12:38:29;99700.29;;;22.56;21.66
57791;BME280;43621;51.798;21.588;2023-03-20T12:42:42;99696.96;;;22.75;21.76
57791;BME280;43621;51.798;21.588;2023-03-20T12:55:42;99695.17;;;22.99;22.44
57791;BME280;43621;51.798;21.588;2023-03-20T13:08:41;99689.85;;;21.62;23.72
57791;BME280;43621;51.798;21.588;2023-03-20T13:12:53;99691.70;;;21.19;24.12
57791;BME280;43621;51.798;21.588;2023-03-20T13:17:18;99689.29;;;20.85;24.70
57791;BME280;43621;51.798;21.588;2023-03-20T13:21:31;99687.29;;;20.50;25.26
57791;BME280;43621;51.798;21.588;2023-03-20T13:38:40;99691.94;;;19.34;26.86
57791;BME280;43621;51.798;21.588;2023-03-20T13:42:51;99692.58;;;19.21;27.46
57791;BME280;43621;51.798;21.588;2023-03-20T13:47:01;99691.59;;;19.14;27.73
57791;BME280;43621;51.798;21.588;2023-03-20T14:03:34;99679.55;;;19.09;28.68
57791;BME280;43621;51.798;21.588;2023-03-20T14:07:42;99683.02;;;19.14;28.88
57791;BME280;43621;51.798;21.588;2023-03-20T14:11:45;99685.30;;;19.07;29.11
57791;BME280;43621;51.798;21.588;2023-03-20T14:15:52;99686.07;;;18.82;29.73
57791;BME280;43621;51.798;21.588;2023-03-20T14:19:56;99688.34;;;18.57;29.85
57791;BME280;43621;51.798;21.588;2023-03-20T14:24:09;99691.77;;;18.40;30.02
57791;BME280;43621;51.798;21.588;2023-03-20T14:36:21;99686.92;;;17.97;31.30
57791;BME280;43621;51.798;21.588;2023-03-20T14:40:32;99687.78;;;17.77;31.43
57791;BME280;43621;51.798;21.588;2023-03-20T14:48:56;99685.28;;;17.46;31.84
57791;BME280;43621;51.798;21.588;2023-03-20T14:57:09;99687.20;;;17.18;32.33
57791;BME280;43621;51.798;21.588;2023-03-20T15:01:24;99691.46;;;17.00;32.54
57791;BME280;43621;51.798;21.588;2023-03-20T15:05:29;99689.79;;;16.81;33.23
57791;BME280;43621;51.798;21.588;2023-03-20T15:09:34;99691.48;;;16.64;33.64
57791;BME280;43621;51.798;21.588;2023-03-20T15:13:38;99693.34;;;16.53;33.67
57791;BME280;43621;51.798;21.588;2023-03-20T15:17:45;99691.70;;;16.45;33.88
57791;BME280;43621;51.798;21.588;2023-03-20T15:21:48;99691.95;;;16.36;34.17
57791;BME280;43621;51.798;21.588;2023-03-20T15:25:50;99693.84;;;16.27;34.75
57791;BME280;43621;51.798;21.588;2023-03-20T15:29:54;99690.56;;;16.14;35.09
57791;BME280;43621;51.798;21.588;2023-03-20T15:33:58;99692.77;;;16.03;35.01
57791;BME280;43621;51.798;21.588;2023-03-20T15:38:05;99696.16;;;15.95;35.69
57791;BME280;43621;51.798;21.588;2023-03-20T15:42:13;99697.63;;;15.87;35.65
57791;BME280;43621;51.798;21.588;2023-03-20T15:46:15;99703.23;;;15.84;35.85
57791;BME280;43621;51.798;21.588;2023-03-20T15:50:17;99702.20;;;15.77;36.12
57791;BME280;43621;51.798;21.588;2023-03-20T15:54:19;99705.83;;;15.67;36.51
57791;BME280;43621;51.798;21.588;2023-03-20T15:58:22;99706.66;;;15.59;37.11
57791;BME280;43621;51.798;21.588;2023-03-20T16:02:26;99714.86;;;15.49;37.22
57791;BME280;43621;51.798;21.588;2023-03-20T16:06:31;99712.13;;;15.36;37.45
57791;BME280;43621;51.798;21.588;2023-03-20T16:10:33;99714.11;;;15.24;37.57
57791;BME280;43621;51.798;21.588;2023-03-20T16:14:38;99715.52;;;15.12;37.92
57791;BME280;43621;51.798;21.588;2023-03-20T16:18:40;99715.50;;;15.01;38.16
57791;BME280;43621;51.798;21.588;2023-03-20T16:22:44;99720.29;;;14.89;38.46
57791;BME280;43621;51.798;21.588;2023-03-20T16:26:49;99721.98;;;14.75;38.72
57791;BME280;43621;51.798;21.588;2023-03-20T16:30:52;99719.37;;;14.64;39.04
57791;BME280;43621;51.798;21.588;2023-03-20T16:34:57;99726.30;;;14.56;39.40
57791;BME280;43621;51.798;21.588;2023-03-20T16:43:18;99732.60;;;14.43;39.60
57791;BME280;43621;51.798;21.588;2023-03-20T16:47:23;99730.80;;;14.34;40.06
57791;BME280;43621;51.798;21.588;2023-03-20T16:51:28;99728.38;;;14.23;40.52
57791;BME280;43621;51.798;21.588;2023-03-20T16:55:34;99727.85;;;14.12;40.57
57791;BME280;43621;51.798;21.588;2023-03-20T16:59:38;99731.52;;;14.03;40.84
57791;BME280;43621;51.798;21.588;2023-03-20T17:03:47;99735.84;;;13.98;41.06
57791;BME280;43621;51.798;21.588;2023-03-20T17:07:50;99732.66;;;13.92;41.30
57791;BME280;43621;51.798;21.588;2023-03-20T17:12:13;99727.42;;;13.84;41.55
57791;BME280;43621;51.798;21.588;2023-03-20T17:16:19;99724.60;;;13.77;41.75
57791;BME280;43621;51.798;21.588;2023-03-20T17:20:27;99717.20;;;13.69;42.02
57791;BME280;43621;51.798;21.588;2023-03-20T17:24:31;99721.33;;;13.60;42.26
57791;BME280;43621;51.798;21.588;2023-03-20T17:28:34;99724.55;;;13.55;42.55
57791;BME280;43621;51.798;21.588;2023-03-20T17:32:37;99722.89;;;13.50;42.95
57791;BME280;43621;51.798;21.588;2023-03-20T17:36:39;99724.37;;;13.42;43.24
57791;BME280;43621;51.798;21.588;2023-03-20T17:40:41;99723.84;;;13.31;43.48
57791;BME280;43621;51.798;21.588;2023-03-20T17:44:43;99725.52;;;13.21;43.75
57791;BME280;43621;51.798;21.588;2023-03-20T17:48:47;99722.29;;;13.11;44.25
57791;BME280;43621;51.798;21.588;2023-03-20T17:52:49;99723.03;;;13.05;44.52
57791;BME280;43621;51.798;21.588;2023-03-20T17:56:51;99727.76;;;13.04;44.66
57791;BME280;43621;51.798;21.588;2023-03-20T18:00:53;99732.82;;;13.04;44.93
57791;BME280;43621;51.798;21.588;2023-03-20T18:04:55;99735.25;;;13.03;45.18
57791;BME280;43621;51.798;21.588;2023-03-20T18:08:59;99736.63;;;12.98;45.57
57791;BME280;43621;51.798;21.588;2023-03-20T18:13:02;99742.66;;;12.94;45.71
57791;BME280;43621;51.798;21.588;2023-03-20T18:17:04;99750.92;;;12.90;45.93
57791;BME280;43621;51.798;21.588;2023-03-20T18:21:09;99750.42;;;12.87;45.94
57791;BME280;43621;51.798;21.588;2023-03-20T18:25:11;99755.52;;;12.83;46.20
57791;BME280;43621;51.798;21.588;2023-03-20T18:29:13;99753.86;;;12.79;46.87
57791;BME280;43621;51.798;21.588;2023-03-20T18:33:15;99751.46;;;12.72;47.31
57791;BME280;43621;51.798;21.588;2023-03-20T18:37:17;99747.18;;;12.66;47.60
57791;BME280;43621;51.798;21.588;2023-03-20T18:41:19;99746.07;;;12.58;47.82
57791;BME280;43621;51.798;21.588;2023-03-20T18:45:22;99749.80;;;12.54;48.21
57791;BME280;43621;51.798;21.588;2023-03-20T18:49:24;99751.45;;;12.50;48.45
57791;BME280;43621;51.798;21.588;2023-03-20T18:53:27;99749.80;;;12.45;48.92
57791;BME280;43621;51.798;21.588;2023-03-20T18:57:29;99748.45;;;12.36;48.98
57791;BME280;43621;51.798;21.588;2023-03-20T19:01:31;99743.24;;;12.27;49.31
57791;BME280;43621;51.798;21.588;2023-03-20T19:05:33;99740.85;;;12.20;49.61
57791;BME280;43621;51.798;21.588;2023-03-20T19:09:36;99744.02;;;12.13;49.92
57791;BME280;43621;51.798;21.588;2023-03-20T19:13:37;99743.21;;;12.14;50.46
57791;BME280;43621;51.798;21.588;2023-03-20T19:17:39;99749.06;;;12.15;50.99
57791;BME280;43621;51.798;21.588;2023-03-20T19:21:41;99748.45;;;12.12;50.99
57791;BME280;43621;51.798;21.588;2023-03-20T19:25:44;99744.67;;;12.10;51.03
57791;BME280;43621;51.798;21.588;2023-03-20T19:29:46;99744.21;;;12.11;51.16
57791;BME280;43621;51.798;21.588;2023-03-20T19:33:49;99747.25;;;12.09;51.40
57791;BME280;43621;51.798;21.588;2023-03-20T19:37:51;99748.85;;;12.02;51.26
57791;BME280;43621;51.798;21.588;2023-03-20T19:41:53;99748.52;;;11.90;51.31
57791;BME280;43621;51.798;21.588;2023-03-20T19:45:55;99749.03;;;11.77;51.39
57791;BME280;43621;51.798;21.588;2023-03-20T19:49:58;99742.53;;;11.67;51.72
57791;BME280;43621;51.798;21.588;2023-03-20T19:53:59;99743.91;;;11.60;51.83
57791;BME280;43621;51.798;21.588;2023-03-20T19:58:02;99749.98;;;11.52;51.89
57791;BME280;43621;51.798;21.588;2023-03-20T20:02:05;99747.77;;;11.42;52.32
57791;BME280;43621;51.798;21.588;2023-03-20T20:06:07;99748.52;;;11.37;52.40
57791;BME280;43621;51.798;21.588;2023-03-20T20:10:09;99746.73;;;11.35;52.83
57791;BME280;43621;51.798;21.588;2023-03-20T20:14:11;99742.51;;;11.32;52.88
57791;BME280;43621;51.798;21.588;2023-03-20T20:18:14;99746.13;;;11.31;53.17
57791;BME280;43621;51.798;21.588;2023-03-20T20:22:16;99744.73;;;11.29;53.16
57791;BME280;43621;51.798;21.588;2023-03-20T20:26:18;99741.25;;;11.27;53.30
57791;BME280;43621;51.798;21.588;2023-03-20T20:30:19;99737.20;;;11.22;53.48
57791;BME280;43621;51.798;21.588;2023-03-20T20:34:21;99738.98;;;11.18;53.47
57791;BME280;43621;51.798;21.588;2023-03-20T20:38:23;99740.59;;;11.16;53.64
57791;BME280;43621;51.798;21.588;2023-03-20T20:42:25;99738.23;;;11.11;53.97
57791;BME280;43621;51.798;21.588;2023-03-20T20:46:27;99734.59;;;11.07;54.04
57791;BME280;43621;51.798;21.588;2023-03-20T20:50:31;99733.79;;;11.03;54.20
57791;BME280;43621;51.798;21.588;2023-03-20T20:54:33;99735.01;;;11.03;54.18
57791;BME280;43621;51.798;21.588;2023-03-20T20:58:35;99732.48;;;11.06;54.43
57791;BME280;43621;51.798;21.588;2023-03-20T21:02:37;99730.11;;;11.02;54.48
57791;BME280;43621;51.798;21.588;2023-03-20T21:06:43;99728.98;;;10.94;54.49
57791;BME280;43621;51.798;21.588;2023-03-20T21:10:45;99731.16;;;10.89;54.98
57791;BME280;43621;51.798;21.588;2023-03-20T21:14:49;99728.38;;;10.85;54.96
57791;BME280;43621;51.798;21.588;2023-03-20T21:18:51;99728.56;;;10.82;54.99
57791;BME280;43621;51.798;21.588;2023-03-20T21:22:53;99726.16;;;10.74;55.04
57791;BME280;43621;51.798;21.588;2023-03-20T21:26:54;99728.23;;;10.65;55.17
57791;BME280;43621;51.798;21.588;2023-03-20T21:30:56;99733.54;;;10.57;55.42
57791;BME280;43621;51.798;21.588;2023-03-20T21:34:58;99733.83;;;10.48;55.51
57791;BME280;43621;51.798;21.588;2023-03-20T21:39:03;99731.70;;;10.43;55.73
57791;BME280;43621;51.798;21.588;2023-03-20T21:43:04;99733.38;;;10.44;56.05
57791;BME280;43621;51.798;21.588;2023-03-20T21:47:07;99738.34;;;10.51;56.18
57791;BME280;43621;51.798;21.588;2023-03-20T21:51:09;99740.42;;;10.56;56.25
57791;BME280;43621;51.798;21.588;2023-03-20T21:55:10;99740.03;;;10.59;56.39
57791;BME280;43621;51.798;21.588;2023-03-20T21:59:12;99737.91;;;10.57;56.44
57791;BME280;43621;51.798;21.588;2023-03-20T22:03:14;99736.17;;;10.51;56.62
57791;BME280;43621;51.798;21.588;2023-03-20T22:07:16;99734.84;;;10.49;56.74
57791;BME280;43621;51.798;21.588;2023-03-20T22:11:18;99736.10;;;10.49;56.84
57791;BME280;43621;51.798;21.588;2023-03-20T22:15:20;99737.05;;;10.48;57.02
57791;BME280;43621;51.798;21.588;2023-03-20T22:19:22;99737.04;;;10.46;57.07
57791;BME280;43621;51.798;21.588;2023-03-20T22:23:24;99735.23;;;10.43;57.11
57791;BME280;43621;51.798;21.588;2023-03-20T22:27:26;99734.48;;;10.43;57.36
57791;BME280;43621;51.798;21.588;2023-03-20T22:31:28;99734.05;;;10.48;57.63
57791;BME280;43621;51.798;21.588;2023-03-20T22:35:30;99731.89;;;10.50;57.81
57791;BME280;43621;51.798;21.588;2023-03-20T22:39:31;99727.09;;;10.50;57.85
57791;BME280;43621;51.798;21.588;2023-03-20T22:43:34;99724.95;;;10.50;57.97
57791;BME280;43621;51.798;21.588;2023-03-20T22:47:36;99729.36;;;10.50;57.91
57791;BME280;43621;51.798;21.588;2023-03-20T22:51:38;99725.63;;;10.50;58.17
57791;BME280;43621;51.798;21.588;2023-03-20T22:55:41;99718.30;;;10.50;58.11
57791;BME280;43621;51.798;21.588;2023-03-20T22:59:44;99720.64;;;10.51;58.21
57791;BME280;43621;51.798;21.588;2023-03-20T23:03:46;99719.98;;;10.56;58.45
57791;BME280;43621;51.798;21.588;2023-03-20T23:07:48;99723.91;;;10.63;58.71
57791;BME280;43621;51.798;21.588;2023-03-20T23:11:49;99723.39;;;10.69;58.82
57791;BME280;43621;51.798;21.588;2023-03-20T23:15:51;99727.30;;;10.68;58.76
57791;BME280;43621;51.798;21.588;2023-03-20T23:19:53;99728.95;;;10.71;58.98
57791;BME280;43621;51.798;21.588;2023-03-20T23:23:55;99734.23;;;10.74;58.98
57791;BME280;43621;51.798;21.588;2023-03-20T23:27:57;99736.43;;;10.74;58.85
57791;BME280;43621;51.798;21.588;2023-03-20T23:31:59;99736.04;;;10.77;58.87
57791;BME280;43621;51.798;21.588;2023-03-20T23:36:01;99734.23;;;10.79;58.88
57791;BME280;43621;51.798;21.588;2023-03-20T23:40:03;99731.90;;;10.81;59.08